createdAt,value
2024-01-10T00:02:06.345Z,34.70
2024-01-10T00:04:33.496Z,34.70
2024-01-10T00:07:00.475Z,34.60
2024-01-10T00:09:27.373Z,34.70
2024-01-10T00:11:54.310Z,34.70
2024-01-10T00:14:21.272Z,34.70
2024-01-10T00:16:48.302Z,34.70
2024-01-10T00:19:15.341Z,34.70
2024-01-10T00:21:42.375Z,34.70
2024-01-10T00:24:09.319Z,34.70
2024-01-10T00:26:36.217Z,34.70
2024-01-10T00:29:05.144Z,34.70
2024-01-10T00:31:32.783Z,34.80
2024-01-10T00:33:59.967Z,34.70
2024-01-10T00:36:27.624Z,34.80
2024-01-10T00:38:54.516Z,34.80
2024-01-10T00:41:21.490Z,34.80
2024-01-10T00:43:48.513Z,34.80
2024-01-10T00:46:15.408Z,34.80
2024-01-10T00:48:42.503Z,34.90
2024-01-10T00:51:10.422Z,34.90
2024-01-10T00:53:39.694Z,34.80
2024-01-10T00:56:07.870Z,34.80
2024-01-10T00:58:35.128Z,34.90
2024-01-10T01:01:02.263Z,34.90
2024-01-10T01:03:29.580Z,34.90
2024-01-10T01:05:56.921Z,34.90
2024-01-10T01:08:23.997Z,34.90
2024-01-10T01:10:51.132Z,35.00
2024-01-10T01:13:18.317Z,35.00
2024-01-10T01:15:45.263Z,35.00
2024-01-10T01:18:14.071Z,35.00
2024-01-10T01:20:41.419Z,35.00
2024-01-10T01:23:08.501Z,35.00
2024-01-10T01:25:35.528Z,35.00
2024-01-10T01:28:02.610Z,35.00
2024-01-10T01:30:29.556Z,35.00
2024-01-10T01:32:57.869Z,35.00
2024-01-10T01:35:25.070Z,35.00
2024-01-10T01:37:52.702Z,35.00
2024-01-10T01:40:20.163Z,35.10
2024-01-10T01:42:47.519Z,35.10
2024-01-10T01:45:14.947Z,35.10
2024-01-10T01:47:42.574Z,35.10
2024-01-10T01:50:10.541Z,35.10
2024-01-10T01:52:39.168Z,35.10
2024-01-10T01:55:08.185Z,35.10
2024-01-10T01:57:35.191Z,35.00
2024-01-10T02:00:03.304Z,35.00
2024-01-10T02:02:33.335Z,35.10
2024-01-10T02:05:00.688Z,35.10
2024-01-10T02:07:28.461Z,35.10
2024-01-10T02:09:55.546Z,35.10
2024-01-10T02:12:22.707Z,35.00
2024-01-10T02:14:49.677Z,35.00
2024-01-10T02:17:17.036Z,35.10
2024-01-10T02:19:44.236Z,35.10
2024-01-10T02:22:12.236Z,35.00
2024-01-10T02:24:39.516Z,35.00
2024-01-10T02:27:06.499Z,35.00
2024-01-10T02:29:34.742Z,35.00
2024-01-10T02:32:01.889Z,35.10
2024-01-10T02:34:30.515Z,35.00
2024-01-10T02:36:58.307Z,35.10
2024-01-10T02:39:25.257Z,35.10
2024-01-10T02:41:52.194Z,35.10
2024-01-10T02:44:20.870Z,35.10
2024-01-10T02:46:47.904Z,35.10
2024-01-10T02:49:14.997Z,35.00
2024-01-10T02:51:41.845Z,35.10
2024-01-10T02:54:08.734Z,35.10
2024-01-10T02:56:35.756Z,35.10
2024-01-10T02:59:02.928Z,35.00
2024-01-10T03:01:29.895Z,35.10
2024-01-10T03:03:57.005Z,35.10
2024-01-10T03:06:24.172Z,35.10
2024-01-10T03:08:51.220Z,35.10
2024-01-10T03:11:18.273Z,35.00
2024-01-10T03:13:46.991Z,35.10
2024-01-10T03:16:14.241Z,35.00
2024-01-10T03:18:41.408Z,35.00
2024-01-10T03:21:08.380Z,35.10
2024-01-10T03:23:35.253Z,35.00
2024-01-10T03:26:02.225Z,35.00
2024-01-10T03:28:29.515Z,35.10
2024-01-10T03:30:56.494Z,35.10
2024-01-10T03:33:23.464Z,35.10
2024-01-10T03:35:50.405Z,35.10
2024-01-10T03:38:17.668Z,35.10
2024-01-10T03:40:45.039Z,35.00
2024-01-10T03:43:13.212Z,35.00
2024-01-10T03:45:40.190Z,35.00
2024-01-10T03:48:08.245Z,35.10
2024-01-10T03:50:35.143Z,35.10
2024-01-10T03:53:02.784Z,35.10
2024-01-10T03:55:29.809Z,35.10
2024-01-10T03:57:57.959Z,35.10
2024-01-10T04:00:26.236Z,35.00
2024-01-10T04:02:54.005Z,35.10
2024-01-10T04:05:21.857Z,35.10
2024-01-10T04:07:48.915Z,35.00
2024-01-10T04:10:16.213Z,35.10
2024-01-10T04:12:44.203Z,35.00
2024-01-10T04:15:11.412Z,35.10
2024-01-10T04:17:38.408Z,35.00
2024-01-10T04:20:06.416Z,35.00
2024-01-10T04:22:33.565Z,35.00
2024-01-10T04:25:02.012Z,35.00
2024-01-10T04:27:28.936Z,35.00
2024-01-10T04:29:55.847Z,35.00
2024-01-10T04:32:22.957Z,35.00
2024-01-10T04:34:49.981Z,35.00
2024-01-10T04:37:17.285Z,35.00
2024-01-10T04:39:44.237Z,35.00
2024-01-10T04:42:14.512Z,35.00
2024-01-10T04:44:41.587Z,35.00
2024-01-10T04:47:09.012Z,35.00
2024-01-10T04:49:36.072Z,35.00
2024-01-10T04:52:03.471Z,35.00
2024-01-10T04:54:30.398Z,35.00
2024-01-10T04:56:57.391Z,34.90
2024-01-10T04:59:24.361Z,35.00
2024-01-10T05:01:51.464Z,34.90
2024-01-10T05:04:18.445Z,34.90
2024-01-10T05:06:45.625Z,34.90
2024-01-10T05:09:13.645Z,34.90
2024-01-10T05:11:42.301Z,34.90
2024-01-10T05:14:11.017Z,34.80
2024-01-10T05:16:38.184Z,34.80
2024-01-10T05:19:05.291Z,34.80
2024-01-10T05:21:33.970Z,34.80
2024-01-10T05:24:00.894Z,34.80
2024-01-10T05:26:27.860Z,34.80
2024-01-10T05:28:54.889Z,34.80
2024-01-10T05:31:21.862Z,34.80
2024-01-10T05:33:48.864Z,34.80
2024-01-10T05:36:15.889Z,34.80
2024-01-10T05:38:42.774Z,34.80
2024-01-10T05:41:10.229Z,34.80
2024-01-10T05:43:37.728Z,34.80
2024-01-10T05:46:06.279Z,34.70
2024-01-10T05:48:33.637Z,34.70
2024-01-10T05:51:01.893Z,34.70
2024-01-10T05:53:29.608Z,34.70
2024-01-10T05:55:56.674Z,34.70
2024-01-10T05:58:23.660Z,34.70
2024-01-10T06:00:50.605Z,34.70
2024-01-10T06:03:17.915Z,34.70
2024-01-10T06:05:45.091Z,34.60
2024-01-10T06:08:12.301Z,34.60
2024-01-10T06:10:39.219Z,34.70
2024-01-10T06:13:06.317Z,34.70
2024-01-10T06:15:33.312Z,34.60
2024-01-10T06:18:00.336Z,34.60
2024-01-10T06:20:27.285Z,34.70
2024-01-10T06:22:54.368Z,34.60
2024-01-10T06:25:21.337Z,34.60
2024-01-10T06:27:48.257Z,34.60
2024-01-10T06:30:15.401Z,34.60
2024-01-10T06:32:42.385Z,34.50
2024-01-10T06:35:11.129Z,34.60
2024-01-10T06:37:39.277Z,34.60
2024-01-10T06:40:07.091Z,34.70
2024-01-10T06:42:34.564Z,34.70
2024-01-10T06:45:01.517Z,34.70
2024-01-10T06:47:28.689Z,34.70
2024-01-10T06:49:55.990Z,34.60
2024-01-10T06:52:23.302Z,34.70
2024-01-10T06:54:50.269Z,34.70
2024-01-10T06:57:17.275Z,34.70
2024-01-10T06:59:44.720Z,34.70
2024-01-10T07:02:12.127Z,34.70
2024-01-10T07:04:39.811Z,34.70
2024-01-10T07:07:07.029Z,34.70
2024-01-10T07:09:33.995Z,34.70
2024-01-10T07:12:01.000Z,34.70
2024-01-10T07:14:28.138Z,34.70
2024-01-10T07:16:58.046Z,34.70
2024-01-10T07:19:25.512Z,34.70
2024-01-10T07:21:55.250Z,34.60
2024-01-10T07:24:22.605Z,34.70
2024-01-10T07:26:49.663Z,34.70
2024-01-10T07:29:16.720Z,34.60
2024-01-10T07:31:43.697Z,34.70
2024-01-10T07:34:10.853Z,34.70
2024-01-10T07:36:44.309Z,34.70
2024-01-10T07:39:11.475Z,34.90
2024-01-10T07:41:38.554Z,34.90
2024-01-10T07:44:05.600Z,35.00
2024-01-10T07:46:32.672Z,35.10
2024-01-10T07:49:01.713Z,35.10
2024-01-10T07:51:28.867Z,35.00
2024-01-10T07:53:55.779Z,35.00
2024-01-10T07:56:23.315Z,35.10
2024-01-10T07:58:50.362Z,35.10
2024-01-10T08:01:17.352Z,35.10
2024-01-10T08:03:44.547Z,35.10
2024-01-10T08:06:20.403Z,35.20
2024-01-10T08:08:53.881Z,35.20
2024-01-10T08:11:20.787Z,35.10
2024-01-10T08:13:47.767Z,35.20
2024-01-10T08:16:15.223Z,35.10
2024-01-10T08:18:43.392Z,35.20
2024-01-10T08:21:10.401Z,35.20
2024-01-10T08:23:37.285Z,35.20
2024-01-10T08:26:07.308Z,35.30
2024-01-10T08:28:34.293Z,35.20
2024-01-10T08:31:04.494Z,35.30
2024-01-10T08:33:32.626Z,35.20
2024-01-10T08:36:00.552Z,35.20
2024-01-10T08:38:27.856Z,35.30
2024-01-10T08:40:54.952Z,35.30
2024-01-10T08:43:21.963Z,35.20
2024-01-10T08:45:48.964Z,35.20
2024-01-10T08:48:16.372Z,35.20
2024-01-10T08:50:45.115Z,35.10
2024-01-10T08:53:12.450Z,35.10
2024-01-10T08:55:39.422Z,35.10
2024-01-10T08:58:06.597Z,35.10
2024-01-10T09:00:33.728Z,35.00
2024-01-10T09:03:00.928Z,35.10
2024-01-10T09:05:28.168Z,35.10
2024-01-10T09:07:55.242Z,35.10
2024-01-10T09:10:29.316Z,35.00
2024-01-10T09:12:56.892Z,35.00
2024-01-10T09:15:23.810Z,35.10
2024-01-10T09:17:50.749Z,35.10
2024-01-10T09:20:17.949Z,35.10
2024-01-10T09:22:45.187Z,35.00
2024-01-10T09:25:13.418Z,35.00
2024-01-10T09:27:45.332Z,35.00
2024-01-10T09:30:13.367Z,35.10
2024-01-10T09:32:40.919Z,35.00
2024-01-10T09:35:09.241Z,35.00
2024-01-10T09:37:36.255Z,35.00
2024-01-10T09:40:03.522Z,35.10
2024-01-10T09:42:34.419Z,35.20
2024-01-10T09:45:04.416Z,35.20
2024-01-10T09:47:33.501Z,35.20
2024-01-10T09:50:03.452Z,35.20
2024-01-10T09:52:34.753Z,35.20
2024-01-10T09:55:02.552Z,35.20
2024-01-10T09:57:29.477Z,35.20
2024-01-10T09:59:56.805Z,35.20
2024-01-10T10:02:25.068Z,35.20
2024-01-10T10:05:10.189Z,35.20
2024-01-10T10:07:51.174Z,35.10
2024-01-10T10:10:19.219Z,35.20
2024-01-10T10:12:53.574Z,35.20
2024-01-10T10:15:23.037Z,35.20
2024-01-10T10:17:51.617Z,35.20
2024-01-10T10:20:23.375Z,35.30
2024-01-10T10:23:04.020Z,35.30
2024-01-10T10:25:43.352Z,35.30
2024-01-10T10:28:15.582Z,35.30
2024-01-10T10:30:47.700Z,35.30
2024-01-10T10:33:14.842Z,35.30
2024-01-10T10:35:46.355Z,35.30
2024-01-10T10:38:15.857Z,35.30
2024-01-10T10:40:42.869Z,35.30
2024-01-10T10:43:17.115Z,35.30
2024-01-10T10:45:49.948Z,35.30
2024-01-10T10:48:22.790Z,35.40
2024-01-10T10:51:16.992Z,35.40
2024-01-10T10:53:46.559Z,35.40
2024-01-10T10:56:14.115Z,35.40
2024-01-10T10:58:43.347Z,35.40
2024-01-10T11:01:13.039Z,35.40
2024-01-10T11:03:41.956Z,35.50
2024-01-10T11:06:09.463Z,35.40
2024-01-10T11:09:16.720Z,35.50
2024-01-10T11:12:21.362Z,35.50
2024-01-10T11:14:55.997Z,35.50
2024-01-10T11:17:41.305Z,35.60
2024-01-10T11:20:37.848Z,35.60
2024-01-10T11:23:35.188Z,35.60
2024-01-10T11:26:04.178Z,35.70
2024-01-10T11:28:34.561Z,35.70
2024-01-10T11:31:01.751Z,35.80
2024-01-10T11:33:34.287Z,35.90
2024-01-10T11:36:07.595Z,36.10
2024-01-10T11:38:34.553Z,36.20
2024-01-10T11:41:04.664Z,36.40
2024-01-10T11:43:32.347Z,36.50
2024-01-10T11:45:59.233Z,36.60
2024-01-10T11:48:30.033Z,36.60
2024-01-10T11:50:59.011Z,36.60
2024-01-10T11:53:48.230Z,36.50
2024-01-10T11:56:23.579Z,36.50
2024-01-10T11:59:17.093Z,36.50
2024-01-10T12:01:44.218Z,36.50
2024-01-10T12:04:17.916Z,36.40
2024-01-10T12:06:50.998Z,36.40
2024-01-10T12:09:18.493Z,36.40
2024-01-10T12:11:45.944Z,36.30
2024-01-10T12:14:13.296Z,36.30
2024-01-10T12:16:40.365Z,36.30
2024-01-10T12:19:07.472Z,36.30
2024-01-10T12:21:34.505Z,36.30
2024-01-10T12:24:01.630Z,36.30
2024-01-10T12:26:28.747Z,36.30
2024-01-10T12:28:57.347Z,36.30
2024-01-10T12:31:28.177Z,36.30
2024-01-10T12:33:58.977Z,36.40
2024-01-10T12:36:26.414Z,36.30
2024-01-10T12:38:53.371Z,36.30
2024-01-10T12:41:21.104Z,36.40
2024-01-10T12:43:54.349Z,36.30
2024-01-10T12:46:21.301Z,36.30
2024-01-10T12:49:01.453Z,36.30
2024-01-10T12:51:32.933Z,36.30
2024-01-10T12:54:00.422Z,36.30
2024-01-10T12:56:29.101Z,36.30
2024-01-10T12:58:57.232Z,36.30
2024-01-10T13:01:25.927Z,36.30
2024-01-10T13:03:53.967Z,36.30
2024-01-10T13:06:23.685Z,36.30
2024-01-10T13:08:51.388Z,36.40
2024-01-10T13:11:18.803Z,36.40
2024-01-10T13:13:45.886Z,36.30
2024-01-10T13:16:13.843Z,36.40
2024-01-10T13:18:41.222Z,36.40
2024-01-10T13:21:08.895Z,36.40
2024-01-10T13:23:37.527Z,36.40
2024-01-10T13:26:04.920Z,36.50
2024-01-10T13:28:31.994Z,36.40
2024-01-10T13:30:59.540Z,36.40
2024-01-10T13:33:27.117Z,36.50
2024-01-10T13:35:54.415Z,36.40
2024-01-10T13:38:21.687Z,36.50
2024-01-10T13:40:48.993Z,36.50
2024-01-10T13:43:16.275Z,36.50
2024-01-10T13:45:44.325Z,36.60
2024-01-10T13:48:11.823Z,36.60
2024-01-10T13:50:39.014Z,36.70
2024-01-10T13:53:06.229Z,36.80
2024-01-10T13:55:33.370Z,36.90
2024-01-10T13:58:00.442Z,36.90
2024-01-10T14:00:28.281Z,36.90
2024-01-10T14:03:00.239Z,36.80
2024-01-10T14:05:30.506Z,36.80
2024-01-10T14:07:57.954Z,36.70
2024-01-10T14:10:25.367Z,36.70
2024-01-10T14:12:52.648Z,36.70
2024-01-10T14:15:19.718Z,36.70
2024-01-10T14:17:49.827Z,36.70
2024-01-10T14:20:16.857Z,36.70
2024-01-10T14:22:43.955Z,36.70
2024-01-10T14:25:11.069Z,36.60
2024-01-10T14:27:39.936Z,36.60
2024-01-10T14:30:09.746Z,36.70
2024-01-10T14:32:38.844Z,36.70
2024-01-10T14:35:06.973Z,36.80
2024-01-10T14:37:37.408Z,37.00
2024-01-10T14:40:05.212Z,36.90
2024-01-10T14:42:33.982Z,36.90
2024-01-10T14:45:05.064Z,36.90
2024-01-10T14:47:32.160Z,36.90
2024-01-10T14:49:59.345Z,36.90
2024-01-10T14:52:26.627Z,36.80
2024-01-10T14:54:54.227Z,36.90
2024-01-10T14:57:22.140Z,36.90
2024-01-10T14:59:49.593Z,36.90
2024-01-10T15:02:19.611Z,36.90
2024-01-10T15:04:46.907Z,36.90
2024-01-10T15:07:14.832Z,36.80
2024-01-10T15:09:44.632Z,36.90
2024-01-10T15:12:12.135Z,36.80
2024-01-10T15:14:40.310Z,36.80
2024-01-10T15:17:13.104Z,36.80
2024-01-10T15:19:41.320Z,36.80
2024-01-10T15:22:09.611Z,36.70
2024-01-10T15:24:36.806Z,36.80
2024-01-10T15:27:10.136Z,36.80
2024-01-10T15:29:41.659Z,36.70
2024-01-10T15:32:09.145Z,36.90
2024-01-10T15:34:36.578Z,36.80
2024-01-10T15:37:03.850Z,36.80
2024-01-10T15:39:31.313Z,36.80
2024-01-10T15:41:58.431Z,36.80
2024-01-10T15:44:25.514Z,36.80
2024-01-10T15:46:52.634Z,36.70
2024-01-10T15:49:19.664Z,36.70
2024-01-10T15:51:46.755Z,36.70
2024-01-10T15:54:13.992Z,36.70
2024-01-10T15:56:42.799Z,36.70
2024-01-10T15:59:10.721Z,36.60
2024-01-10T16:01:38.067Z,36.60
2024-01-10T16:04:05.449Z,36.60
2024-01-10T16:06:34.005Z,36.60
2024-01-10T16:09:02.262Z,36.60
2024-01-10T16:11:29.488Z,36.50
2024-01-10T16:13:58.224Z,36.60
2024-01-10T16:16:30.073Z,36.60
2024-01-10T16:18:57.851Z,36.70
2024-01-10T16:21:24.983Z,36.70
2024-01-10T16:23:52.264Z,36.60
2024-01-10T16:26:19.325Z,36.50
2024-01-10T16:28:47.300Z,36.50
2024-01-10T16:31:14.436Z,36.50
2024-01-10T16:33:41.280Z,36.40
2024-01-10T16:36:08.390Z,36.40
2024-01-10T16:38:35.478Z,36.30
2024-01-10T16:41:02.689Z,36.20
2024-01-10T16:43:29.670Z,36.10
2024-01-10T16:45:57.298Z,36.10
2024-01-10T16:48:25.084Z,36.10
2024-01-10T16:50:52.301Z,36.10
2024-01-10T16:53:19.762Z,36.10
2024-01-10T16:55:46.741Z,36.00
2024-01-10T16:58:14.086Z,36.00
2024-01-10T17:00:41.135Z,36.00
2024-01-10T17:03:08.163Z,36.10
2024-01-10T17:05:39.060Z,36.00
2024-01-10T17:08:08.521Z,36.00
2024-01-10T17:10:35.670Z,36.00
2024-01-10T17:13:02.794Z,36.00
2024-01-10T17:15:29.739Z,36.00
2024-01-10T17:17:58.627Z,36.00
2024-01-10T17:20:26.626Z,35.90
2024-01-10T17:22:54.991Z,36.00
2024-01-10T17:25:24.413Z,36.00
2024-01-10T17:27:52.655Z,36.00
2024-01-10T17:30:21.305Z,36.10
2024-01-10T17:32:49.437Z,36.00
2024-01-10T17:35:17.906Z,36.10
2024-01-10T17:37:46.353Z,36.00
2024-01-10T17:40:14.734Z,36.00
2024-01-10T17:42:41.910Z,36.00
2024-01-10T17:45:10.136Z,36.00
2024-01-10T17:47:37.747Z,36.00
2024-01-10T17:50:05.722Z,36.00
2024-01-10T17:52:32.789Z,36.00
2024-01-10T17:54:59.816Z,36.00
2024-01-10T17:57:28.693Z,36.00
2024-01-10T17:59:56.646Z,36.00
2024-01-10T18:02:24.160Z,36.00
2024-01-10T18:04:51.486Z,36.10
2024-01-10T18:07:18.591Z,36.10
2024-01-10T18:09:45.536Z,36.10
2024-01-10T18:12:12.596Z,36.10
2024-01-10T18:14:39.651Z,36.10
2024-01-10T18:17:06.774Z,36.10
2024-01-10T18:19:33.982Z,36.10
2024-01-10T18:22:01.037Z,36.10
2024-01-10T18:24:27.974Z,36.10
2024-01-10T18:26:54.946Z,36.10
2024-01-10T18:29:21.974Z,36.10
2024-01-10T18:31:49.520Z,36.10
2024-01-10T18:34:16.842Z,36.10
2024-01-10T18:36:44.186Z,36.10
2024-01-10T18:39:14.047Z,36.10
2024-01-10T18:41:42.232Z,36.10
2024-01-10T18:44:09.538Z,36.10
2024-01-10T18:46:38.113Z,36.10
2024-01-10T18:49:06.467Z,36.10
2024-01-10T18:51:33.559Z,36.10
2024-01-10T18:54:00.852Z,36.10
2024-01-10T18:56:28.110Z,36.10
2024-01-10T18:58:55.351Z,36.10
2024-01-10T19:01:22.755Z,36.10
2024-01-10T19:03:49.780Z,36.20
2024-01-10T19:06:16.927Z,36.20
2024-01-10T19:08:44.136Z,36.20
2024-01-10T19:11:11.835Z,36.20
2024-01-10T19:13:41.762Z,36.20
2024-01-10T19:16:13.236Z,36.30
2024-01-10T19:18:40.463Z,36.30
2024-01-10T19:21:08.697Z,36.30
2024-01-10T19:23:38.191Z,36.20
2024-01-10T19:26:06.321Z,36.20
2024-01-10T19:28:33.341Z,36.30
2024-01-10T19:31:00.512Z,36.20
2024-01-10T19:33:27.728Z,36.30
2024-01-10T19:35:54.748Z,36.20
2024-01-10T19:38:21.780Z,36.30
2024-01-10T19:40:48.841Z,36.30
2024-01-10T19:43:25.398Z,36.30
2024-01-10T19:45:52.469Z,36.30
2024-01-10T19:48:20.699Z,36.30
2024-01-10T19:50:47.943Z,36.30
2024-01-10T19:53:15.033Z,36.30
2024-01-10T19:55:42.271Z,36.30
2024-01-10T19:58:09.329Z,36.30
2024-01-10T20:00:36.504Z,36.40
2024-01-10T20:03:04.167Z,36.40
2024-01-10T20:05:31.193Z,36.30
2024-01-10T20:07:58.214Z,36.40
2024-01-10T20:10:25.224Z,36.40
2024-01-10T20:12:52.451Z,36.40
2024-01-10T20:15:19.547Z,36.40
2024-01-10T20:17:47.006Z,36.50
2024-01-10T20:20:14.221Z,36.50
2024-01-10T20:22:41.387Z,36.60
2024-01-10T20:25:08.568Z,36.70
2024-01-10T20:27:35.711Z,36.70
2024-01-10T20:30:03.016Z,36.70
2024-01-10T20:32:30.159Z,36.70
2024-01-10T20:34:57.334Z,36.80
2024-01-10T20:37:24.348Z,36.80
2024-01-10T20:39:51.432Z,36.80
2024-01-10T20:42:18.505Z,36.70
2024-01-10T20:44:45.971Z,36.80
2024-01-10T20:47:13.085Z,36.80
2024-01-10T20:49:40.319Z,36.90
2024-01-10T20:52:07.385Z,36.90
2024-01-10T20:54:38.470Z,36.90
2024-01-10T20:57:07.460Z,36.90
2024-01-10T20:59:34.708Z,36.90
2024-01-10T21:02:02.986Z,36.90
2024-01-10T21:04:30.141Z,36.90
2024-01-10T21:07:08.748Z,36.90
2024-01-10T21:09:42.831Z,36.80
2024-01-10T21:12:14.678Z,36.80
2024-01-10T21:14:42.730Z,36.80
2024-01-10T21:17:13.152Z,36.80
2024-01-10T21:19:40.736Z,36.80
2024-01-10T21:22:07.832Z,36.90
2024-01-10T21:24:35.128Z,36.80
2024-01-10T21:27:02.632Z,36.90
2024-01-10T21:29:29.744Z,36.90
2024-01-10T21:31:56.760Z,36.80
2024-01-10T21:34:23.877Z,36.80
2024-01-10T21:36:50.911Z,36.90
2024-01-10T21:39:17.876Z,36.80
2024-01-10T21:41:44.987Z,36.80
2024-01-10T21:44:12.105Z,36.80
2024-01-10T21:46:39.028Z,36.80
2024-01-10T21:49:06.047Z,36.80
2024-01-10T21:51:32.981Z,36.90
2024-01-10T21:53:59.970Z,36.80
2024-01-10T21:56:26.933Z,36.90
2024-01-10T21:58:53.982Z,36.90
2024-01-10T22:01:21.185Z,36.90
2024-01-10T22:03:49.395Z,37.00
2024-01-10T22:06:16.737Z,36.90
2024-01-10T22:08:43.953Z,36.90
2024-01-10T22:11:12.500Z,36.90
2024-01-10T22:13:39.450Z,37.00
2024-01-10T22:16:08.108Z,37.30
2024-01-10T22:18:35.329Z,37.40
2024-01-10T22:21:02.479Z,37.40
2024-01-10T22:23:29.679Z,37.30
2024-01-10T22:25:56.851Z,37.40
2024-01-10T22:28:23.714Z,37.30
2024-01-10T22:30:51.502Z,37.40
2024-01-10T22:33:18.706Z,37.30
2024-01-10T22:35:45.748Z,37.30
2024-01-10T22:38:12.779Z,37.30
2024-01-10T22:40:39.699Z,37.30
2024-01-10T22:43:07.805Z,37.20
2024-01-10T22:45:35.112Z,37.20
2024-01-10T22:48:02.185Z,37.20
2024-01-10T22:50:29.665Z,37.20
2024-01-10T22:52:56.621Z,37.20
2024-01-10T22:55:23.598Z,37.20
2024-01-10T22:57:52.461Z,37.20
2024-01-10T23:00:22.838Z,37.10
2024-01-10T23:02:50.575Z,37.10
2024-01-10T23:05:18.235Z,37.10
2024-01-10T23:07:45.252Z,37.10
2024-01-10T23:10:13.321Z,37.10
2024-01-10T23:12:41.076Z,37.10
2024-01-10T23:15:09.451Z,37.10
2024-01-10T23:17:36.549Z,37.10
2024-01-10T23:20:04.757Z,37.00
2024-01-10T23:22:31.759Z,37.10
2024-01-10T23:24:58.692Z,37.10
2024-01-10T23:27:26.077Z,37.10
2024-01-10T23:29:53.894Z,37.00
2024-01-10T23:32:24.239Z,37.00
2024-01-10T23:34:51.408Z,37.00
2024-01-10T23:37:18.335Z,37.10
2024-01-10T23:39:45.211Z,37.00
2024-01-10T23:42:12.118Z,37.00
2024-01-10T23:44:38.998Z,37.00
2024-01-10T23:47:06.036Z,37.00
2024-01-10T23:49:33.410Z,37.00
2024-01-10T23:52:00.517Z,37.00
2024-01-10T23:54:27.990Z,37.00
2024-01-10T23:56:55.041Z,37.00
2024-01-10T23:59:22.170Z,37.00
